sensor_id;sensor_type;location;lat;lon;timestamp;P1;P2;P0
76784;PMS7003;66893;44.316;0.092;2023-12-20T00:01:38;16.50;16.50;13.75
76784;PMS7003;66893;44.316;0.092;2023-12-20T00:04:04;14.50;13.50;11.00
76784;PMS7003;66893;44.316;0.092;2023-12-20T00:06:30;14.00;14.00;11.00
76784;PMS7003;66893;44.316;0.092;2023-12-20T00:08:55;22.25;16.75;13.00
76784;PMS7003;66893;44.316;0.092;2023-12-20T00:11:22;19.50;16.25;12.75
76784;PMS7003;66893;44.316;0.092;2023-12-20T00:13:48;17.25;16.75;12.00
76784;PMS7003;66893;44.316;0.092;2023-12-20T00:16:13;17.25;13.75;11.50
76784;PMS7003;66893;44.316;0.092;2023-12-20T00:18:39;16.50;16.00;12.00
76784;PMS7003;66893;44.316;0.092;2023-12-20T00:21:04;18.75;16.75;12.75
76784;PMS7003;66893;44.316;0.092;2023-12-20T00:23:30;13.25;13.00;10.00
76784;PMS7003;66893;44.316;0.092;2023-12-20T00:25:55;13.50;13.50;10.25
76784;PMS7003;66893;44.316;0.092;2023-12-20T00:28:21;14.50;14.50;11.50
76784;PMS7003;66893;44.316;0.092;2023-12-20T00:30:46;14.00;13.00;9.75
76784;PMS7003;66893;44.316;0.092;2023-12-20T00:33:12;14.75;14.75;11.50
76784;PMS7003;66893;44.316;0.092;2023-12-20T00:35:37;18.00;15.50;11.00
76784;PMS7003;66893;44.316;0.092;2023-12-20T00:38:03;15.00;14.00;10.75
76784;PMS7003;66893;44.316;0.092;2023-12-20T00:40:30;16.00;14.25;11.00
76784;PMS7003;66893;44.316;0.092;2023-12-20T00:42:55;15.50;14.75;11.50
76784;PMS7003;66893;44.316;0.092;2023-12-20T00:45:21;16.00;16.00;11.25
76784;PMS7003;66893;44.316;0.092;2023-12-20T00:47:46;16.25;16.25;11.25
76784;PMS7003;66893;44.316;0.092;2023-12-20T00:50:11;13.75;12.25;9.00
76784;PMS7003;66893;44.316;0.092;2023-12-20T00:52:37;18.00;14.50;10.25
76784;PMS7003;66893;44.316;0.092;2023-12-20T00:55:03;19.00;17.50;12.00
76784;PMS7003;66893;44.316;0.092;2023-12-20T00:57:29;19.00;15.75;10.50
76784;PMS7003;66893;44.316;0.092;2023-12-20T00:59:54;16.75;15.50;11.25
76784;PMS7003;66893;44.316;0.092;2023-12-20T01:02:20;15.75;15.25;11.75
76784;PMS7003;66893;44.316;0.092;2023-12-20T01:04:45;14.25;13.00;10.75
76784;PMS7003;66893;44.316;0.092;2023-12-20T01:07:10;16.25;14.25;10.75
76784;PMS7003;66893;44.316;0.092;2023-12-20T01:09:36;15.25;14.50;10.00
76784;PMS7003;66893;44.316;0.092;2023-12-20T01:12:01;14.75;14.25;10.00
76784;PMS7003;66893;44.316;0.092;2023-12-20T01:14:27;16.25;13.25;10.00
76784;PMS7003;66893;44.316;0.092;2023-12-20T01:16:52;14.50;13.75;9.50
76784;PMS7003;66893;44.316;0.092;2023-12-20T01:19:18;14.25;12.75;10.50
76784;PMS7003;66893;44.316;0.092;2023-12-20T01:21:43;13.00;12.00;9.75
76784;PMS7003;66893;44.316;0.092;2023-12-20T01:24:09;14.25;12.00;10.00
76784;PMS7003;66893;44.316;0.092;2023-12-20T01:26:34;12.50;11.00;9.00
76784;PMS7003;66893;44.316;0.092;2023-12-20T01:29:00;16.75;16.75;11.50
76784;PMS7003;66893;44.316;0.092;2023-12-20T01:31:26;14.75;14.50;10.75
76784;PMS7003;66893;44.316;0.092;2023-12-20T01:33:52;16.00;13.75;10.25
76784;PMS7003;66893;44.316;0.092;2023-12-20T01:36:17;14.50;11.50;9.00
76784;PMS7003;66893;44.316;0.092;2023-12-20T01:38:43;13.00;13.00;9.50
76784;PMS7003;66893;44.316;0.092;2023-12-20T01:41:08;15.00;14.00;10.00
76784;PMS7003;66893;44.316;0.092;2023-12-20T01:43:34;13.25;11.25;9.25
76784;PMS7003;66893;44.316;0.092;2023-12-20T01:45:59;12.00;11.75;9.75
76784;PMS7003;66893;44.316;0.092;2023-12-20T01:48:25;15.25;13.25;10.75
76784;PMS7003;66893;44.316;0.092;2023-12-20T01:50:53;12.50;12.25;9.00
76784;PMS7003;66893;44.316;0.092;2023-12-20T01:53:19;12.50;12.50;9.25
76784;PMS7003;66893;44.316;0.092;2023-12-20T01:55:48;14.50;12.50;10.00
76784;PMS7003;66893;44.316;0.092;2023-12-20T01:58:17;15.75;12.75;9.75
76784;PMS7003;66893;44.316;0.092;2023-12-20T02:00:43;12.50;10.00;8.25
76784;PMS7003;66893;44.316;0.092;2023-12-20T02:03:09;13.50;11.25;9.00
76784;PMS7003;66893;44.316;0.092;2023-12-20T02:05:35;13.25;12.50;9.25
76784;PMS7003;66893;44.316;0.092;2023-12-20T02:08:02;13.25;12.75;9.50
76784;PMS7003;66893;44.316;0.092;2023-12-20T02:10:27;11.25;9.50;7.00
76784;PMS7003;66893;44.316;0.092;2023-12-20T02:12:54;11.00;10.50;8.25
76784;PMS7003;66893;44.316;0.092;2023-12-20T02:15:19;12.00;10.50;8.25
76784;PMS7003;66893;44.316;0.092;2023-12-20T02:17:45;13.00;12.50;9.75
76784;PMS7003;66893;44.316;0.092;2023-12-20T02:20:12;10.00;8.25;5.75
76784;PMS7003;66893;44.316;0.092;2023-12-20T02:22:37;11.50;10.00;7.50
76784;PMS7003;66893;44.316;0.092;2023-12-20T02:25:03;12.75;10.50;8.25
76784;PMS7003;66893;44.316;0.092;2023-12-20T02:27:29;9.50;9.50;8.00
76784;PMS7003;66893;44.316;0.092;2023-12-20T02:29:55;7.25;7.25;7.00
76784;PMS7003;66893;44.316;0.092;2023-12-20T02:32:20;11.50;10.50;6.75
76784;PMS7003;66893;44.316;0.092;2023-12-20T02:34:47;12.25;11.00;8.50
76784;PMS7003;66893;44.316;0.092;2023-12-20T02:37:13;8.50;8.50;7.00
76784;PMS7003;66893;44.316;0.092;2023-12-20T02:39:39;9.00;8.00;6.25
76784;PMS7003;66893;44.316;0.092;2023-12-20T02:42:04;10.25;10.00;7.00
76784;PMS7003;66893;44.316;0.092;2023-12-20T02:44:29;9.75;9.75;7.75
76784;PMS7003;66893;44.316;0.092;2023-12-20T02:46:55;11.00;10.75;7.75
76784;PMS7003;66893;44.316;0.092;2023-12-20T02:49:20;10.50;9.50;7.75
76784;PMS7003;66893;44.316;0.092;2023-12-20T02:51:46;10.50;8.50;7.50
76784;PMS7003;66893;44.316;0.092;2023-12-20T02:54:12;9.75;9.75;7.50
76784;PMS7003;66893;44.316;0.092;2023-12-20T02:56:37;12.00;8.75;7.50
76784;PMS7003;66893;44.316;0.092;2023-12-20T02:59:03;10.00;10.00;8.00
76784;PMS7003;66893;44.316;0.092;2023-12-20T03:01:30;8.75;8.75;7.00
76784;PMS7003;66893;44.316;0.092;2023-12-20T03:03:56;8.00;8.00;6.00
76784;PMS7003;66893;44.316;0.092;2023-12-20T03:06:22;8.50;8.25;6.50
76784;PMS7003;66893;44.316;0.092;2023-12-20T03:08:47;9.00;9.00;7.75
76784;PMS7003;66893;44.316;0.092;2023-12-20T03:11:12;9.00;9.00;8.00
76784;PMS7003;66893;44.316;0.092;2023-12-20T03:13:38;11.75;10.75;8.25
76784;PMS7003;66893;44.316;0.092;2023-12-20T03:16:13;7.75;7.75;5.50
76784;PMS7003;66893;44.316;0.092;2023-12-20T03:18:39;9.50;9.00;7.00
76784;PMS7003;66893;44.316;0.092;2023-12-20T03:21:04;8.25;8.25;7.00
76784;PMS7003;66893;44.316;0.092;2023-12-20T03:23:31;7.00;7.00;6.00
76784;PMS7003;66893;44.316;0.092;2023-12-20T03:25:58;9.25;9.00;6.00
76784;PMS7003;66893;44.316;0.092;2023-12-20T03:28:24;7.00;7.00;6.00
76784;PMS7003;66893;44.316;0.092;2023-12-20T03:30:51;7.25;7.25;6.25
76784;PMS7003;66893;44.316;0.092;2023-12-20T03:33:16;8.00;7.50;7.00
76784;PMS7003;66893;44.316;0.092;2023-12-20T03:35:42;8.00;8.00;6.75
76784;PMS7003;66893;44.316;0.092;2023-12-20T03:38:07;7.50;7.50;6.00
76784;PMS7003;66893;44.316;0.092;2023-12-20T03:40:33;9.75;8.00;7.00
76784;PMS7003;66893;44.316;0.092;2023-12-20T03:42:58;10.25;7.00;6.00
76784;PMS7003;66893;44.316;0.092;2023-12-20T03:45:24;5.00;5.00;5.00
76784;PMS7003;66893;44.316;0.092;2023-12-20T03:47:49;11.25;8.50;6.00
76784;PMS7003;66893;44.316;0.092;2023-12-20T03:50:15;9.75;8.50;6.25
76784;PMS7003;66893;44.316;0.092;2023-12-20T03:52:40;11.25;7.75;6.00
76784;PMS7003;66893;44.316;0.092;2023-12-20T03:55:06;7.50;6.75;5.00
76784;PMS7003;66893;44.316;0.092;2023-12-20T03:57:31;6.00;5.00;4.00
76784;PMS7003;66893;44.316;0.092;2023-12-20T03:59:56;6.75;6.00;5.00
76784;PMS7003;66893;44.316;0.092;2023-12-20T04:02:22;7.00;7.00;6.00
76784;PMS7003;66893;44.316;0.092;2023-12-20T04:04:47;6.00;5.00;4.75
76784;PMS7003;66893;44.316;0.092;2023-12-20T04:07:13;7.50;5.00;5.00
76784;PMS7003;66893;44.316;0.092;2023-12-20T04:09:38;6.00;6.00;5.00
76784;PMS7003;66893;44.316;0.092;2023-12-20T04:12:05;7.50;6.00;5.00
76784;PMS7003;66893;44.316;0.092;2023-12-20T04:14:31;6.75;6.75;5.75
76784;PMS7003;66893;44.316;0.092;2023-12-20T04:16:56;8.50;6.25;5.75
76784;PMS7003;66893;44.316;0.092;2023-12-20T04:19:21;7.75;5.00;4.00
76784;PMS7003;66893;44.316;0.092;2023-12-20T04:21:47;7.50;7.00;4.75
76784;PMS7003;66893;44.316;0.092;2023-12-20T04:24:12;4.75;4.75;4.00
76784;PMS7003;66893;44.316;0.092;2023-12-20T04:26:38;7.50;6.75;5.00
76784;PMS7003;66893;44.316;0.092;2023-12-20T04:29:03;6.50;4.00;4.00
76784;PMS7003;66893;44.316;0.092;2023-12-20T04:31:28;5.75;5.75;4.00
76784;PMS7003;66893;44.316;0.092;2023-12-20T04:33:54;6.00;5.75;4.50
76784;PMS7003;66893;44.316;0.092;2023-12-20T04:36:19;10.25;8.00;6.50
76784;PMS7003;66893;44.316;0.092;2023-12-20T04:38:45;10.25;10.25;6.50
76784;PMS7003;66893;44.316;0.092;2023-12-20T04:41:10;6.00;6.00;6.00
76784;PMS7003;66893;44.316;0.092;2023-12-20T04:43:35;12.00;10.75;8.25
76784;PMS7003;66893;44.316;0.092;2023-12-20T04:46:01;13.75;11.75;9.25
76784;PMS7003;66893;44.316;0.092;2023-12-20T04:48:26;13.00;11.00;8.00
76784;PMS7003;66893;44.316;0.092;2023-12-20T04:50:51;11.50;10.25;8.00
76784;PMS7003;66893;44.316;0.092;2023-12-20T04:53:17;10.50;10.50;8.00
76784;PMS7003;66893;44.316;0.092;2023-12-20T04:55:43;7.25;7.25;6.00
76784;PMS7003;66893;44.316;0.092;2023-12-20T04:58:08;11.25;9.00;7.00
76784;PMS7003;66893;44.316;0.092;2023-12-20T05:00:34;7.50;7.00;6.00
76784;PMS7003;66893;44.316;0.092;2023-12-20T05:02:59;7.75;6.00;5.00
76784;PMS7003;66893;44.316;0.092;2023-12-20T05:05:25;8.75;8.25;6.00
76784;PMS7003;66893;44.316;0.092;2023-12-20T05:07:50;7.25;7.00;5.00
76784;PMS7003;66893;44.316;0.092;2023-12-20T05:10:15;6.00;6.00;5.00
76784;PMS7003;66893;44.316;0.092;2023-12-20T05:12:41;7.00;6.00;5.00
76784;PMS7003;66893;44.316;0.092;2023-12-20T05:15:06;7.00;7.00;5.50
76784;PMS7003;66893;44.316;0.092;2023-12-20T05:17:32;6.00;5.00;4.00
76784;PMS7003;66893;44.316;0.092;2023-12-20T05:19:57;6.75;5.25;4.50
76784;PMS7003;66893;44.316;0.092;2023-12-20T05:22:23;8.25;6.00;4.25
76784;PMS7003;66893;44.316;0.092;2023-12-20T05:24:48;6.75;6.75;4.25
76784;PMS7003;66893;44.316;0.092;2023-12-20T05:27:14;7.50;5.00;4.00
76784;PMS7003;66893;44.316;0.092;2023-12-20T05:29:39;4.50;4.50;3.75
76784;PMS7003;66893;44.316;0.092;2023-12-20T05:32:05;5.00;5.00;4.00
76784;PMS7003;66893;44.316;0.092;2023-12-20T05:34:30;4.00;4.00;3.50
76784;PMS7003;66893;44.316;0.092;2023-12-20T05:36:57;5.00;4.00;3.00
76784;PMS7003;66893;44.316;0.092;2023-12-20T05:39:22;5.50;3.50;3.00
76784;PMS7003;66893;44.316;0.092;2023-12-20T05:41:48;7.00;6.75;5.00
76784;PMS7003;66893;44.316;0.092;2023-12-20T05:44:13;9.75;7.50;6.25
76784;PMS7003;66893;44.316;0.092;2023-12-20T05:46:39;8.50;8.50;6.75
76784;PMS7003;66893;44.316;0.092;2023-12-20T05:49:05;11.00;9.25;6.00
76784;PMS7003;66893;44.316;0.092;2023-12-20T05:51:30;10.75;7.50;6.25
76784;PMS7003;66893;44.316;0.092;2023-12-20T05:53:56;9.00;9.00;6.00
76784;PMS7003;66893;44.316;0.092;2023-12-20T05:56:21;9.50;8.00;6.25
76784;PMS7003;66893;44.316;0.092;2023-12-20T05:58:47;12.00;9.75;7.75
76784;PMS7003;66893;44.316;0.092;2023-12-20T06:01:14;16.00;10.00;8.00
76784;PMS7003;66893;44.316;0.092;2023-12-20T06:03:41;10.25;9.00;7.50
76784;PMS7003;66893;44.316;0.092;2023-12-20T06:06:07;14.50;13.50;9.00
76784;PMS7003;66893;44.316;0.092;2023-12-20T06:08:33;13.75;12.50;10.00
76784;PMS7003;66893;44.316;0.092;2023-12-20T06:10:59;14.00;13.75;9.75
76784;PMS7003;66893;44.316;0.092;2023-12-20T06:13:24;12.25;12.25;10.00
76784;PMS7003;66893;44.316;0.092;2023-12-20T06:15:50;13.25;12.00;9.00
76784;PMS7003;66893;44.316;0.092;2023-12-20T06:18:16;14.75;13.00;10.00
76784;PMS7003;66893;44.316;0.092;2023-12-20T06:20:41;15.50;14.00;11.00
76784;PMS7003;66893;44.316;0.092;2023-12-20T06:23:06;12.75;12.75;9.50
76784;PMS7003;66893;44.316;0.092;2023-12-20T06:25:34;15.00;13.75;11.00
76784;PMS7003;66893;44.316;0.092;2023-12-20T06:27:59;19.00;16.50;12.00
76784;PMS7003;66893;44.316;0.092;2023-12-20T06:30:25;20.75;20.75;13.75
76784;PMS7003;66893;44.316;0.092;2023-12-20T06:32:52;18.50;17.00;12.75
76784;PMS7003;66893;44.316;0.092;2023-12-20T06:35:18;20.50;17.50;13.00
76784;PMS7003;66893;44.316;0.092;2023-12-20T06:37:44;18.50;17.00;13.50
76784;PMS7003;66893;44.316;0.092;2023-12-20T06:40:10;20.25;19.25;13.75
76784;PMS7003;66893;44.316;0.092;2023-12-20T06:42:36;23.25;19.75;14.25
76784;PMS7003;66893;44.316;0.092;2023-12-20T06:45:02;26.00;21.75;14.75
76784;PMS7003;66893;44.316;0.092;2023-12-20T06:47:28;28.00;23.00;17.00
76784;PMS7003;66893;44.316;0.092;2023-12-20T06:49:53;20.75;18.25;13.75
76784;PMS7003;66893;44.316;0.092;2023-12-20T06:52:19;16.50;15.25;10.00
76784;PMS7003;66893;44.316;0.092;2023-12-20T06:54:44;15.00;14.50;10.75
76784;PMS7003;66893;44.316;0.092;2023-12-20T06:57:09;18.50;16.75;13.00
76784;PMS7003;66893;44.316;0.092;2023-12-20T06:59:41;13.50;12.75;10.00
76784;PMS7003;66893;44.316;0.092;2023-12-20T07:02:07;15.50;14.50;12.00
76784;PMS7003;66893;44.316;0.092;2023-12-20T07:04:33;12.25;11.75;9.00
76784;PMS7003;66893;44.316;0.092;2023-12-20T07:06:59;17.00;14.25;11.00
76784;PMS7003;66893;44.316;0.092;2023-12-20T07:09:28;22.25;18.50;12.50
76784;PMS7003;66893;44.316;0.092;2023-12-20T07:11:53;20.00;15.50;11.75
76784;PMS7003;66893;44.316;0.092;2023-12-20T07:14:19;17.75;17.25;13.00
76784;PMS7003;66893;44.316;0.092;2023-12-20T07:16:44;16.50;13.50;11.00
76784;PMS7003;66893;44.316;0.092;2023-12-20T07:19:10;20.25;18.00;12.50
76784;PMS7003;66893;44.316;0.092;2023-12-20T07:21:35;16.00;14.00;11.00
76784;PMS7003;66893;44.316;0.092;2023-12-20T07:24:00;17.00;14.75;11.25
76784;PMS7003;66893;44.316;0.092;2023-12-20T07:26:26;14.50;12.75;8.75
76784;PMS7003;66893;44.316;0.092;2023-12-20T07:28:52;14.25;13.50;9.00
76784;PMS7003;66893;44.316;0.092;2023-12-20T07:31:17;11.25;11.25;8.00
76784;PMS7003;66893;44.316;0.092;2023-12-20T07:33:42;12.00;9.00;6.00
76784;PMS7003;66893;44.316;0.092;2023-12-20T07:36:08;11.50;10.25;8.00
76784;PMS7003;66893;44.316;0.092;2023-12-20T07:38:33;12.25;11.00;7.75
76784;PMS7003;66893;44.316;0.092;2023-12-20T07:40:59;13.00;10.00;7.00
76784;PMS7003;66893;44.316;0.092;2023-12-20T07:43:24;13.75;9.75;7.00
76784;PMS7003;66893;44.316;0.092;2023-12-20T07:45:50;11.50;9.50;6.00
76784;PMS7003;66893;44.316;0.092;2023-12-20T07:48:15;11.00;7.75;5.00
76784;PMS7003;66893;44.316;0.092;2023-12-20T07:50:41;8.00;8.00;5.75
76784;PMS7003;66893;44.316;0.092;2023-12-20T07:53:07;7.00;7.00;5.00
76784;PMS7003;66893;44.316;0.092;2023-12-20T07:55:32;10.75;9.00;5.75
76784;PMS7003;66893;44.316;0.092;2023-12-20T07:57:59;6.00;5.50;4.00
76784;PMS7003;66893;44.316;0.092;2023-12-20T08:00:25;7.00;6.25;4.25
76784;PMS7003;66893;44.316;0.092;2023-12-20T08:02:50;5.50;5.50;3.75
76784;PMS7003;66893;44.316;0.092;2023-12-20T08:05:15;7.00;4.00;3.00
76784;PMS7003;66893;44.316;0.092;2023-12-20T08:07:41;6.75;6.25;3.50
76784;PMS7003;66893;44.316;0.092;2023-12-20T08:10:06;7.00;4.25;3.75
76784;PMS7003;66893;44.316;0.092;2023-12-20T08:12:32;9.75;4.50;4.00
76784;PMS7003;66893;44.316;0.092;2023-12-20T08:14:58;7.50;6.50;5.00
76784;PMS7003;66893;44.316;0.092;2023-12-20T08:17:24;7.00;5.25;3.25
76784;PMS7003;66893;44.316;0.092;2023-12-20T08:19:49;4.00;3.25;3.00
76784;PMS7003;66893;44.316;0.092;2023-12-20T08:22:14;4.50;4.50;4.00
76784;PMS7003;66893;44.316;0.092;2023-12-20T08:24:40;5.75;4.00;3.50
76784;PMS7003;66893;44.316;0.092;2023-12-20T08:27:05;5.75;5.00;4.00
76784;PMS7003;66893;44.316;0.092;2023-12-20T08:29:31;3.00;3.00;1.75
76784;PMS7003;66893;44.316;0.092;2023-12-20T08:31:56;6.75;4.75;3.50
76784;PMS7003;66893;44.316;0.092;2023-12-20T08:34:22;3.25;3.25;3.00
76784;PMS7003;66893;44.316;0.092;2023-12-20T08:36:48;5.00;4.00;3.00
76784;PMS7003;66893;44.316;0.092;2023-12-20T08:39:15;5.50;5.00;4.00
76784;PMS7003;66893;44.316;0.092;2023-12-20T08:41:40;7.00;6.00;4.50
76784;PMS7003;66893;44.316;0.092;2023-12-20T08:44:06;6.75;6.75;5.00
76784;PMS7003;66893;44.316;0.092;2023-12-20T08:46:31;7.50;6.75;5.00
76784;PMS7003;66893;44.316;0.092;2023-12-20T08:48:56;7.50;5.50;4.75
76784;PMS7003;66893;44.316;0.092;2023-12-20T08:51:22;6.00;6.00;5.00
76784;PMS7003;66893;44.316;0.092;2023-12-20T08:53:50;6.25;6.25;4.50
76784;PMS7003;66893;44.316;0.092;2023-12-20T08:56:16;5.00;5.00;3.25
76784;PMS7003;66893;44.316;0.092;2023-12-20T08:58:43;10.25;6.75;5.00
76784;PMS7003;66893;44.316;0.092;2023-12-20T09:01:08;7.50;6.00;4.00
76784;PMS7003;66893;44.316;0.092;2023-12-20T09:03:34;7.50;6.25;4.00
76784;PMS7003;66893;44.316;0.092;2023-12-20T09:05:59;4.25;4.25;4.00
76784;PMS7003;66893;44.316;0.092;2023-12-20T09:08:25;10.25;8.00;6.00
76784;PMS7003;66893;44.316;0.092;2023-12-20T09:10:50;7.75;6.25;4.50
76784;PMS7003;66893;44.316;0.092;2023-12-20T09:13:16;8.50;7.25;5.00
76784;PMS7003;66893;44.316;0.092;2023-12-20T09:15:41;7.50;7.25;5.00
76784;PMS7003;66893;44.316;0.092;2023-12-20T09:18:07;8.25;7.00;5.25
76784;PMS7003;66893;44.316;0.092;2023-12-20T09:20:33;7.00;7.00;5.00
76784;PMS7003;66893;44.316;0.092;2023-12-20T09:22:59;10.50;7.50;5.00
76784;PMS7003;66893;44.316;0.092;2023-12-20T09:25:24;7.50;6.75;5.00
76784;PMS7003;66893;44.316;0.092;2023-12-20T09:27:51;8.00;7.75;5.75
76784;PMS7003;66893;44.316;0.092;2023-12-20T09:30:17;7.50;7.25;4.50
76784;PMS7003;66893;44.316;0.092;2023-12-20T09:32:43;6.50;6.50;4.00
76784;PMS7003;66893;44.316;0.092;2023-12-20T09:35:08;9.75;7.25;5.00
76784;PMS7003;66893;44.316;0.092;2023-12-20T09:37:34;5.50;4.75;3.50
76784;PMS7003;66893;44.316;0.092;2023-12-20T09:39:59;7.00;5.25;3.25
76784;PMS7003;66893;44.316;0.092;2023-12-20T09:42:27;5.50;4.25;3.00
76784;PMS7003;66893;44.316;0.092;2023-12-20T09:45:03;4.00;3.75;3.00
76784;PMS7003;66893;44.316;0.092;2023-12-20T09:47:30;3.75;3.75;2.50
76784;PMS7003;66893;44.316;0.092;2023-12-20T09:49:55;9.75;4.50;3.00
76784;PMS7003;66893;44.316;0.092;2023-12-20T09:52:21;7.75;5.00;3.25
76784;PMS7003;66893;44.316;0.092;2023-12-20T09:54:49;4.25;4.00;3.00
76784;PMS7003;66893;44.316;0.092;2023-12-20T09:57:17;2.75;2.00;1.00
76784;PMS7003;66893;44.316;0.092;2023-12-20T09:59:43;5.50;4.00;3.00
76784;PMS7003;66893;44.316;0.092;2023-12-20T10:02:09;5.00;3.75;2.00
76784;PMS7003;66893;44.316;0.092;2023-12-20T10:04:40;3.50;2.75;2.00
76784;PMS7003;66893;44.316;0.092;2023-12-20T10:07:12;8.00;3.50;2.00
76784;PMS7003;66893;44.316;0.092;2023-12-20T10:09:37;5.00;3.25;2.25
76784;PMS7003;66893;44.316;0.092;2023-12-20T10:12:03;4.75;2.75;2.00
76784;PMS7003;66893;44.316;0.092;2023-12-20T10:14:30;6.00;4.25;3.50
76784;PMS7003;66893;44.316;0.092;2023-12-20T10:17:03;6.00;5.00;3.50
76784;PMS7003;66893;44.316;0.092;2023-12-20T10:19:30;10.75;8.75;5.25
76784;PMS7003;66893;44.316;0.092;2023-12-20T10:22:01;11.25;7.00;4.00
76784;PMS7003;66893;44.316;0.092;2023-12-20T10:24:29;10.75;9.50;6.75
76784;PMS7003;66893;44.316;0.092;2023-12-20T10:27:05;15.25;12.50;8.00
76784;PMS7003;66893;44.316;0.092;2023-12-20T10:29:35;8.00;7.25;5.00
76784;PMS7003;66893;44.316;0.092;2023-12-20T10:34:49;10.25;6.25;5.00
76784;PMS7003;66893;44.316;0.092;2023-12-20T10:37:16;12.50;8.00;5.00
76784;PMS7003;66893;44.316;0.092;2023-12-20T10:39:42;10.25;7.75;5.00
76784;PMS7003;66893;44.316;0.092;2023-12-20T10:42:10;7.75;7.25;4.50
76784;PMS7003;66893;44.316;0.092;2023-12-20T10:44:37;6.50;6.00;3.50
76784;PMS7003;66893;44.316;0.092;2023-12-20T10:47:02;8.50;6.75;4.75
76784;PMS7003;66893;44.316;0.092;2023-12-20T10:49:29;9.25;8.00;5.50
76784;PMS7003;66893;44.316;0.092;2023-12-20T10:51:56;8.50;5.25;4.50
76784;PMS7003;66893;44.316;0.092;2023-12-20T10:54:24;12.00;8.50;6.00
76784;PMS7003;66893;44.316;0.092;2023-12-20T10:56:50;8.50;7.75;5.50
76784;PMS7003;66893;44.316;0.092;2023-12-20T10:59:17;8.25;7.75;5.25
76784;PMS7003;66893;44.316;0.092;2023-12-20T11:01:45;10.25;9.25;6.00
76784;PMS7003;66893;44.316;0.092;2023-12-20T11:04:13;8.00;8.00;5.75
76784;PMS7003;66893;44.316;0.092;2023-12-20T11:06:49;12.50;10.75;8.00
76784;PMS7003;66893;44.316;0.092;2023-12-20T11:09:25;11.75;11.00;7.00
76784;PMS7003;66893;44.316;0.092;2023-12-20T11:14:40;7.25;7.25;4.75
76784;PMS7003;66893;44.316;0.092;2023-12-20T11:17:11;11.00;8.00;5.25
76784;PMS7003;66893;44.316;0.092;2023-12-20T11:22:25;8.50;6.00;4.50
76784;PMS7003;66893;44.316;0.092;2023-12-20T11:24:53;6.50;6.50;4.00
76784;PMS7003;66893;44.316;0.092;2023-12-20T11:27:19;7.00;6.00;3.00
76784;PMS7003;66893;44.316;0.092;2023-12-20T11:29:56;5.25;5.25;3.00
76784;PMS7003;66893;44.316;0.092;2023-12-20T11:34:50;7.25;5.25;3.50
76784;PMS7003;66893;44.316;0.092;2023-12-20T11:37:16;6.00;4.00;2.50
76784;PMS7003;66893;44.316;0.092;2023-12-20T11:39:42;5.50;5.00;3.25
76784;PMS7003;66893;44.316;0.092;2023-12-20T11:42:08;7.00;5.00;3.00
76784;PMS7003;66893;44.316;0.092;2023-12-20T11:44:36;4.00;4.00;2.00
76784;PMS7003;66893;44.316;0.092;2023-12-20T11:47:02;6.00;4.00;2.75
76784;PMS7003;66893;44.316;0.092;2023-12-20T11:49:28;11.00;6.00;4.25
76784;PMS7003;66893;44.316;0.092;2023-12-20T11:51:55;5.00;4.00;2.00
76784;PMS7003;66893;44.316;0.092;2023-12-20T11:54:21;3.00;3.00;2.75
76784;PMS7003;66893;44.316;0.092;2023-12-20T11:56:47;4.00;2.25;2.00
76784;PMS7003;66893;44.316;0.092;2023-12-20T11:59:13;2.75;2.00;2.00
76784;PMS7003;66893;44.316;0.092;2023-12-20T12:01:38;5.50;4.25;2.75
76784;PMS7003;66893;44.316;0.092;2023-12-20T12:04:07;4.00;3.50;2.50
76784;PMS7003;66893;44.316;0.092;2023-12-20T12:06:32;3.00;3.00;2.00
76784;PMS7003;66893;44.316;0.092;2023-12-20T12:08:58;10.75;5.25;3.00
76784;PMS7003;66893;44.316;0.092;2023-12-20T12:11:24;6.00;4.00;2.75
76784;PMS7003;66893;44.316;0.092;2023-12-20T12:13:49;3.50;2.00;1.00
76784;PMS7003;66893;44.316;0.092;2023-12-20T12:16:19;6.00;2.00;1.75
76784;PMS7003;66893;44.316;0.092;2023-12-20T12:18:45;3.00;2.00;1.50
76784;PMS7003;66893;44.316;0.092;2023-12-20T12:21:18;5.00;3.00;2.00
76784;PMS7003;66893;44.316;0.092;2023-12-20T12:23:44;4.50;1.75;1.75
76784;PMS7003;66893;44.316;0.092;2023-12-20T12:26:09;5.50;2.00;1.25
76784;PMS7003;66893;44.316;0.092;2023-12-20T12:28:35;2.75;1.50;1.00
76784;PMS7003;66893;44.316;0.092;2023-12-20T12:31:00;4.00;1.50;1.00
76784;PMS7003;66893;44.316;0.092;2023-12-20T12:33:26;4.75;1.50;0.50
76784;PMS7003;66893;44.316;0.092;2023-12-20T12:35:52;7.75;2.25;1.50
76784;PMS7003;66893;44.316;0.092;2023-12-20T12:38:20;4.50;1.50;1.00
76784;PMS7003;66893;44.316;0.092;2023-12-20T12:40:46;3.25;2.25;1.25
76784;PMS7003;66893;44.316;0.092;2023-12-20T12:43:12;2.00;2.00;1.25
76784;PMS7003;66893;44.316;0.092;2023-12-20T12:45:38;5.25;2.00;1.25
76784;PMS7003;66893;44.316;0.092;2023-12-20T12:48:03;1.75;1.25;0.75
76784;PMS7003;66893;44.316;0.092;2023-12-20T12:50:30;1.75;1.75;1.00
76784;PMS7003;66893;44.316;0.092;2023-12-20T12:52:55;2.00;1.00;0.25
76784;PMS7003;66893;44.316;0.092;2023-12-20T12:55:21;1.00;1.00;1.00
76784;PMS7003;66893;44.316;0.092;2023-12-20T12:57:46;3.00;2.00;0.75
76784;PMS7003;66893;44.316;0.092;2023-12-20T13:00:12;2.25;1.00;1.00
76784;PMS7003;66893;44.316;0.092;2023-12-20T13:02:38;2.00;1.00;1.00
76784;PMS7003;66893;44.316;0.092;2023-12-20T13:05:07;1.75;1.75;1.00
76784;PMS7003;66893;44.316;0.092;2023-12-20T13:07:33;1.00;1.00;0.00
76784;PMS7003;66893;44.316;0.092;2023-12-20T13:09:58;1.50;1.25;1.00
76784;PMS7003;66893;44.316;0.092;2023-12-20T13:12:24;1.75;1.75;1.00
76784;PMS7003;66893;44.316;0.092;2023-12-20T13:14:49;0.50;0.00;0.00
76784;PMS7003;66893;44.316;0.092;2023-12-20T13:17:15;4.25;1.00;1.00
76784;PMS7003;66893;44.316;0.092;2023-12-20T13:19:41;3.00;1.75;0.75
76784;PMS7003;66893;44.316;0.092;2023-12-20T13:22:07;2.00;1.00;0.50
76784;PMS7003;66893;44.316;0.092;2023-12-20T13:24:32;0.00;0.00;0.00
76784;PMS7003;66893;44.316;0.092;2023-12-20T13:26:57;0.25;0.25;0.00
76784;PMS7003;66893;44.316;0.092;2023-12-20T13:29:23;2.00;1.00;0.50
76784;PMS7003;66893;44.316;0.092;2023-12-20T13:31:52;0.50;0.00;0.00
76784;PMS7003;66893;44.316;0.092;2023-12-20T13:34:17;0.00;0.00;0.00
76784;PMS7003;66893;44.316;0.092;2023-12-20T13:36:43;1.00;1.00;0.25
76784;PMS7003;66893;44.316;0.092;2023-12-20T13:39:11;2.50;0.50;0.00
76784;PMS7003;66893;44.316;0.092;2023-12-20T13:41:37;1.00;0.00;0.00
76784;PMS7003;66893;44.316;0.092;2023-12-20T13:44:02;1.00;1.00;1.00
76784;PMS7003;66893;44.316;0.092;2023-12-20T13:46:28;0.50;0.50;0.50
76784;PMS7003;66893;44.316;0.092;2023-12-20T13:48:54;2.00;0.75;0.25
76784;PMS7003;66893;44.316;0.092;2023-12-20T13:51:19;2.00;0.00;0.00
76784;PMS7003;66893;44.316;0.092;2023-12-20T13:53:46;0.75;0.75;0.50
76784;PMS7003;66893;44.316;0.092;2023-12-20T13:56:13;3.00;1.00;1.00
76784;PMS7003;66893;44.316;0.092;2023-12-20T13:58:39;0.00;0.00;0.00
76784;PMS7003;66893;44.316;0.092;2023-12-20T14:01:05;2.25;1.00;1.00
76784;PMS7003;66893;44.316;0.092;2023-12-20T14:03:31;2.25;1.00;1.00
76784;PMS7003;66893;44.316;0.092;2023-12-20T14:05:57;3.00;1.00;1.00
76784;PMS7003;66893;44.316;0.092;2023-12-20T14:08:22;1.50;1.00;1.00
76784;PMS7003;66893;44.316;0.092;2023-12-20T14:10:49;1.00;1.00;0.50
76784;PMS7003;66893;44.316;0.092;2023-12-20T14:13:15;1.00;1.00;1.00
76784;PMS7003;66893;44.316;0.092;2023-12-20T14:15:40;1.00;1.00;1.00